Scolamanzi — VMQ9715 — position and weather

sailwx.info

Track history (hours):
 
Tides and Currents Weather Stations Pressure Air Temp Water Temp Dewpoint Dewpoint Depression Visibility Wind Speed Wind Dir Waves Ship Positions

Scolamanzi

Last reported at 2017-Dec-01 00:06 UTC. Time now 2018-Jan-23 08:02 UTC.
Position N 26°07' W 080°06'.
Warning: this ship's position is 53 days out of date.

Length 17 m.

Type: Pleasure craft. MMSI: 503463700.

Date/timePositionNaut miles runAvg speedWind from/ knotsBaromVisibWave heightAir tempDewpointWater temp
2017-Dec-01 00:06N 26°07' W 080°06'0 0.0
2017-Dec-01 00:00N 26°07' W 080°06'0 0.0
2017-Nov-30 23:30N 26°07' W 080°06'0 0.2
2017-Nov-30 22:49N 26°07' W 080°06'0 0.0
2017-Nov-30 02:19N 26°07' W 080°06'0 0.1
2017-Nov-30 01:53N 26°07' W 080°06'0 0.0
2017-Nov-29 20:01N 26°07' W 080°06'0 0.3
2017-Nov-29 19:48N 26°07' W 080°07'1 4.3
2017-Nov-29 19:28N 26°09' W 080°06'3 5.4
2017-Nov-29 18:55N 26°12' W 080°06'2 5.3
2017-Nov-29 18:27N 26°14' W 080°06'3 4.8
2017-Nov-29 17:55N 26°17' W 080°05'4 6.6
2017-Nov-29 17:21N 26°20' W 080°05'13 0.6
2017-Nov-28 20:49N 26°33' W 080°03'2 7.2
2017-Nov-28 20:30N 26°35' W 080°03'4 7.7
2017-Nov-28 20:00N 26°39' W 080°03'2 3.1
2017-Nov-28 19:30N 26°41' W 080°03'2 3.3
2017-Nov-28 18:58N 26°42' W 080°03'1 2.1
2017-Nov-28 18:30N 26°43' W 080°03'2 4.3
2017-Nov-28 18:00N 26°46' W 080°03'1 1.7
2017-Nov-28 17:30N 26°46' W 080°03'0 0.3
2017-Nov-28 17:00N 26°46' W 080°03'0 0.3
2017-Nov-28 15:53N 26°46' W 080°03'0 0.0
2017-Nov-27 21:34N 26°46' W 080°03'0 0.0
2017-Nov-27 21:28N 26°46' W 080°03'0 0.2
2017-Nov-27 21:00N 26°46' W 080°03'2 3.8
2017-Nov-27 20:30N 26°48' W 080°02'4 7.1
2017-Nov-27 20:01N 26°51' W 080°02'4 7.3
2017-Nov-27 19:30N 26°55' W 080°02'4 7.6
2017-Nov-27 19:00N 26°59' W 080°04'  
Track history (hours):
 
Tides and Currents Weather Stations Pressure Air Temp Water Temp Dewpoint Dewpoint Depression Visibility Wind Speed Wind Dir Waves Ship Positions

Scolamanzi

Last reported at 2017-Dec-01 00:06 UTC. Time now 2018-Jan-23 08:02 UTC.
Position N 26°07' W 080°06'.
Warning: this ship's position is 53 days out of date.

Length 17 m.

Type: Pleasure craft. MMSI: 503463700.

Date/timePositionNaut miles runAvg speedWind from/ knotsBaromVisibWave heightAir tempDewpointWater temp
2017-Dec-01 00:06N 26°07' W 080°06'0 0.0
2017-Dec-01 00:00N 26°07' W 080°06'0 0.0
2017-Nov-30 23:30N 26°07' W 080°06'0 0.2
2017-Nov-30 22:49N 26°07' W 080°06'0 0.0
2017-Nov-30 02:19N 26°07' W 080°06'0 0.1
2017-Nov-30 01:53N 26°07' W 080°06'0 0.0
2017-Nov-29 20:01N 26°07' W 080°06'0 0.3
2017-Nov-29 19:48N 26°07' W 080°07'1 4.3
2017-Nov-29 19:28N 26°09' W 080°06'3 5.4
2017-Nov-29 18:55N 26°12' W 080°06'2 5.3
2017-Nov-29 18:27N 26°14' W 080°06'3 4.8
2017-Nov-29 17:55N 26°17' W 080°05'4 6.6
2017-Nov-29 17:21N 26°20' W 080°05'13 0.6
2017-Nov-28 20:49N 26°33' W 080°03'2 7.2
2017-Nov-28 20:30N 26°35' W 080°03'4 7.7
2017-Nov-28 20:00N 26°39' W 080°03'2 3.1
2017-Nov-28 19:30N 26°41' W 080°03'2 3.3
2017-Nov-28 18:58N 26°42' W 080°03'1 2.1
2017-Nov-28 18:30N 26°43' W 080°03'2 4.3
2017-Nov-28 18:00N 26°46' W 080°03'1 1.7
2017-Nov-28 17:30N 26°46' W 080°03'0 0.3
2017-Nov-28 17:00N 26°46' W 080°03'0 0.3
2017-Nov-28 15:53N 26°46' W 080°03'0 0.0
2017-Nov-27 21:34N 26°46' W 080°03'0 0.0
2017-Nov-27 21:28N 26°46' W 080°03'0 0.2
2017-Nov-27 21:00N 26°46' W 080°03'2 3.8
2017-Nov-27 20:30N 26°48' W 080°02'4 7.1
2017-Nov-27 20:01N 26°51' W 080°02'4 7.3
2017-Nov-27 19:30N 26°55' W 080°02'4 7.6
2017-Nov-27 19:00N 26°59' W 080°04'  

Dump ship's entire track history